createdAt,value
2018-05-25T00:01:42.977Z,14.53
2018-05-25T00:04:09.176Z,14.23
2018-05-25T00:06:35.391Z,15.73
2018-05-25T00:09:02.604Z,15.73
2018-05-25T00:11:28.849Z,17.00
2018-05-25T00:13:55.068Z,15.93
2018-05-25T00:16:21.344Z,16.40
2018-05-25T00:18:47.556Z,17.53
2018-05-25T00:21:14.538Z,17.77
2018-05-25T00:23:40.746Z,16.77
2018-05-25T00:26:06.999Z,17.50
2018-05-25T00:28:33.240Z,18.87
2018-05-25T00:30:59.531Z,19.10
2018-05-25T00:33:25.826Z,18.27
2018-05-25T00:35:52.064Z,19.00
2018-05-25T00:38:18.294Z,19.03
2018-05-25T00:40:45.268Z,19.17
2018-05-25T00:43:11.483Z,19.83
2018-05-25T00:45:37.727Z,20.47
2018-05-25T00:48:04.264Z,20.00
2018-05-25T00:50:30.803Z,21.60
2018-05-25T00:52:57.462Z,21.50
2018-05-25T00:55:36.063Z,20.80
2018-05-25T00:58:02.296Z,21.50
2018-05-25T01:00:29.444Z,20.13
2018-05-25T01:02:55.687Z,19.97
2018-05-25T01:05:21.901Z,20.03
2018-05-25T01:07:48.127Z,19.70
2018-05-25T01:10:14.395Z,21.27
2018-05-25T01:12:40.652Z,21.07
2018-05-25T01:15:06.907Z,20.73
2018-05-25T01:17:33.223Z,21.27
2018-05-25T01:19:59.619Z,19.33
2018-05-25T01:22:25.859Z,19.63
2018-05-25T01:24:52.855Z,20.13
2018-05-25T01:27:19.076Z,19.13
2018-05-25T01:29:45.334Z,18.67
2018-05-25T01:32:12.167Z,18.90
2018-05-25T01:34:38.416Z,21.13
2018-05-25T01:37:04.651Z,20.30
2018-05-25T01:39:31.928Z,21.03
2018-05-25T01:41:58.299Z,20.47
2018-05-25T01:44:24.528Z,20.27
2018-05-25T01:46:50.750Z,19.37
2018-05-25T01:49:16.978Z,18.97
2018-05-25T01:51:43.381Z,20.47
2018-05-25T01:54:09.668Z,20.57
2018-05-25T01:56:35.916Z,21.27
2018-05-25T01:59:02.156Z,20.43
2018-05-25T02:01:28.361Z,20.20
2018-05-25T02:03:55.310Z,20.73
2018-05-25T02:06:22.276Z,19.50
2018-05-25T02:08:48.481Z,20.47
2018-05-25T02:11:15.510Z,19.70
2018-05-25T02:13:41.683Z,18.87
2018-05-25T02:16:07.986Z,19.87
2018-05-25T02:18:34.938Z,19.87
2018-05-25T02:21:01.890Z,19.90
2018-05-25T02:23:28.101Z,19.20
2018-05-25T02:25:55.049Z,19.80
2018-05-25T02:28:22.051Z,19.13
2018-05-25T02:30:48.253Z,20.03
2018-05-25T02:33:14.492Z,19.83
2018-05-25T02:35:40.727Z,20.03
2018-05-25T02:38:07.044Z,20.23
2018-05-25T02:40:33.326Z,19.20
2018-05-25T02:43:00.312Z,20.20
2018-05-25T02:45:26.572Z,19.53
2018-05-25T02:47:52.777Z,19.27
2018-05-25T02:50:19.018Z,19.50
2018-05-25T02:52:45.270Z,18.40
2018-05-25T02:55:12.249Z,18.57
2018-05-25T02:57:38.481Z,19.50
2018-05-25T03:00:04.878Z,19.30
2018-05-25T03:02:31.073Z,20.30
2018-05-25T03:04:57.294Z,19.70
2018-05-25T03:07:23.496Z,19.50
2018-05-25T03:09:49.814Z,19.37
2018-05-25T03:12:16.039Z,19.57
2018-05-25T03:14:43.342Z,20.80
2018-05-25T03:17:09.559Z,19.47
2018-05-25T03:19:35.780Z,19.43
2018-05-25T03:22:01.977Z,19.23
2018-05-25T03:24:28.244Z,20.63
2018-05-25T03:26:55.272Z,21.40
2018-05-25T03:29:21.555Z,21.60
2018-05-25T03:31:47.776Z,21.30
2018-05-25T03:34:14.008Z,21.27
2018-05-25T03:36:41.300Z,21.07
2018-05-25T03:39:07.545Z,20.87
2018-05-25T03:41:33.824Z,21.87
2018-05-25T03:44:00.794Z,20.47
2018-05-25T03:46:28.474Z,21.23
2018-05-25T03:48:54.698Z,20.90
2018-05-25T03:51:20.964Z,21.33
2018-05-25T03:53:47.187Z,20.70
2018-05-25T03:56:14.118Z,21.43
2018-05-25T03:58:52.718Z,21.33
2018-05-25T04:01:31.235Z,21.40
2018-05-25T04:03:57.734Z,22.00
2018-05-25T04:06:24.020Z,22.20
2018-05-25T04:08:50.259Z,22.73
2018-05-25T04:11:16.468Z,22.93
2018-05-25T04:13:42.741Z,22.13
2018-05-25T04:16:09.742Z,22.17
2018-05-25T04:18:35.962Z,21.90
2018-05-25T04:21:02.209Z,21.80
2018-05-25T04:23:28.713Z,21.77
2018-05-25T04:25:54.981Z,22.17
2018-05-25T04:28:21.957Z,21.03
2018-05-25T04:30:48.947Z,22.30
2018-05-25T04:33:15.127Z,21.53
2018-05-25T04:35:42.119Z,22.37
2018-05-25T04:38:08.356Z,21.47
2018-05-25T04:40:34.867Z,21.67
2018-05-25T04:43:01.173Z,21.27
2018-05-25T04:45:27.407Z,21.07
2018-05-25T04:47:54.396Z,20.00
2018-05-25T04:50:21.384Z,20.70
2018-05-25T04:52:48.436Z,21.17
2018-05-25T04:55:15.507Z,20.03
2018-05-25T04:57:41.711Z,20.20
2018-05-25T05:00:09.298Z,18.27
2018-05-25T05:02:35.542Z,18.43
2018-05-25T05:05:01.800Z,17.63
2018-05-25T05:07:27.973Z,19.03
2018-05-25T05:09:54.206Z,17.77
2018-05-25T05:12:20.481Z,19.10
2018-05-25T05:14:46.703Z,17.23
2018-05-25T05:17:12.949Z,17.87
2018-05-25T05:19:39.963Z,17.00
2018-05-25T05:22:06.207Z,17.67
2018-05-25T05:24:32.426Z,17.40
2018-05-25T05:26:58.668Z,16.60
2018-05-25T05:29:24.881Z,17.33
2018-05-25T05:31:51.379Z,18.00
2018-05-25T05:34:17.641Z,18.30
2018-05-25T05:36:44.068Z,18.57
2018-05-25T05:39:11.399Z,17.90
2018-05-25T05:41:37.823Z,18.17
2018-05-25T05:44:04.152Z,19.33
2018-05-25T05:46:30.763Z,19.10
2018-05-25T05:48:57.080Z,19.17
2018-05-25T05:51:23.288Z,18.80
2018-05-25T05:53:49.512Z,19.00
2018-05-25T05:56:16.129Z,19.83
2018-05-25T05:58:42.409Z,19.20
2018-05-25T06:01:08.611Z,19.53
2018-05-25T06:03:34.857Z,19.53
2018-05-25T06:06:01.126Z,19.90
2018-05-25T06:08:27.423Z,19.30
2018-05-25T06:10:53.676Z,18.63
2018-05-25T06:13:19.915Z,18.40
2018-05-25T06:15:50.896Z,18.10
2018-05-25T06:18:20.399Z,17.60
2018-05-25T06:20:47.866Z,18.57
2018-05-25T06:23:14.111Z,16.57
2018-05-25T06:25:40.324Z,17.03
2018-05-25T06:28:06.574Z,16.90
2018-05-25T06:30:32.805Z,16.90
2018-05-25T06:32:59.047Z,16.63
2018-05-25T06:35:25.284Z,17.33
2018-05-25T06:37:52.360Z,16.77
2018-05-25T06:40:18.613Z,16.77
2018-05-25T06:42:44.842Z,16.43
2018-05-25T06:45:11.060Z,18.00
2018-05-25T06:47:37.265Z,16.33
2018-05-25T06:50:03.528Z,18.07
2018-05-25T06:52:29.784Z,16.80
2018-05-25T06:54:56.069Z,15.40
2018-05-25T06:57:22.323Z,15.97
2018-05-25T06:59:48.600Z,15.20
2018-05-25T07:02:14.835Z,15.30
2018-05-25T07:04:41.068Z,15.10
2018-05-25T07:07:07.355Z,15.80
2018-05-25T07:09:33.938Z,16.43
2018-05-25T07:12:00.749Z,15.73
2018-05-25T07:14:27.207Z,15.17
2018-05-25T07:16:54.958Z,15.10
2018-05-25T07:19:21.206Z,13.50
2018-05-25T07:21:47.449Z,14.60
2018-05-25T07:24:13.672Z,14.00
2018-05-25T07:26:39.870Z,13.95
2018-05-25T07:29:06.100Z,14.43
2018-05-25T07:31:32.353Z,13.68
2018-05-25T07:33:58.600Z,13.68
2018-05-25T07:36:24.834Z,13.32
2018-05-25T07:38:51.772Z,13.30
2018-05-25T07:41:18.777Z,13.48
2018-05-25T07:43:44.992Z,13.50
2018-05-25T07:46:12.224Z,12.57
2018-05-25T07:48:38.460Z,11.80
2018-05-25T07:51:04.735Z,13.45
2018-05-25T07:53:31.167Z,12.70
2018-05-25T07:55:57.403Z,11.80
2018-05-25T07:58:23.617Z,13.13
2018-05-25T08:00:49.892Z,13.07
2018-05-25T08:03:16.170Z,12.52
2018-05-25T08:05:42.435Z,13.10
2018-05-25T08:08:09.412Z,12.80
2018-05-25T08:10:35.680Z,12.90
2018-05-25T08:13:01.957Z,13.80
2018-05-25T08:15:28.195Z,12.30
2018-05-25T08:17:54.465Z,12.50
2018-05-25T08:20:20.685Z,10.82
2018-05-25T08:22:46.911Z,13.52
2018-05-25T08:25:13.152Z,11.88
2018-05-25T08:27:39.491Z,11.98
2018-05-25T08:30:06.452Z,9.98
2018-05-25T08:32:33.629Z,10.82
2018-05-25T08:34:59.969Z,10.68
2018-05-25T08:37:26.235Z,10.43
2018-05-25T08:39:52.492Z,10.45
2018-05-25T08:42:19.471Z,11.02
2018-05-25T08:44:45.716Z,13.23
2018-05-25T08:47:12.806Z,10.95
2018-05-25T08:49:39.755Z,13.25
2018-05-25T08:52:06.728Z,12.20
2018-05-25T08:54:33.007Z,12.43
2018-05-25T08:57:00.017Z,13.20
2018-05-25T08:59:26.250Z,12.82
2018-05-25T09:01:52.572Z,12.98
2018-05-25T09:04:18.844Z,13.45
2018-05-25T09:06:45.886Z,12.55
2018-05-25T09:09:12.147Z,12.50
2018-05-25T09:11:38.399Z,12.60
2018-05-25T09:14:05.670Z,14.43
2018-05-25T09:16:31.911Z,12.95
2018-05-25T09:18:58.152Z,12.40
2018-05-25T09:21:24.409Z,12.02
2018-05-25T09:23:50.812Z,11.50
2018-05-25T09:26:18.045Z,12.95
2018-05-25T09:28:44.281Z,11.35
2018-05-25T09:31:10.518Z,11.10
2018-05-25T09:33:36.944Z,12.90
2018-05-25T09:36:03.167Z,12.50
2018-05-25T09:38:29.420Z,12.75
2018-05-25T09:40:55.635Z,11.88
2018-05-25T09:43:22.669Z,11.93
2018-05-25T09:45:48.916Z,11.43
2018-05-25T09:48:15.164Z,12.57
2018-05-25T09:50:42.137Z,11.38
2018-05-25T09:53:08.348Z,13.82
2018-05-25T09:55:34.594Z,12.50
2018-05-25T09:58:00.808Z,14.70
2018-05-25T10:00:27.087Z,12.43
2018-05-25T10:02:53.368Z,12.80
2018-05-25T10:05:19.642Z,11.77
2018-05-25T10:07:45.863Z,12.30
2018-05-25T10:10:12.137Z,11.15
2018-05-25T10:12:38.492Z,11.77
2018-05-25T10:15:04.765Z,11.00
2018-05-25T10:17:31.003Z,12.05
2018-05-25T10:19:57.298Z,12.00
2018-05-25T10:22:24.315Z,12.15
2018-05-25T10:24:50.521Z,12.75
2018-05-25T10:27:17.485Z,11.65
2018-05-25T10:29:43.750Z,10.98
2018-05-25T10:32:10.013Z,10.15
2018-05-25T10:34:37.176Z,9.10
2018-05-25T10:37:04.150Z,10.10
2018-05-25T10:39:30.464Z,11.48
2018-05-25T10:41:56.806Z,10.95
2018-05-25T10:44:23.082Z,10.73
2018-05-25T10:46:49.281Z,10.38
2018-05-25T10:49:15.524Z,11.88
2018-05-25T10:51:41.824Z,12.30
2018-05-25T10:54:08.080Z,12.47
2018-05-25T10:56:34.337Z,10.23
2018-05-25T10:59:00.557Z,9.10
2018-05-25T11:01:26.772Z,10.77
2018-05-25T11:03:52.991Z,8.77
2018-05-25T11:06:19.200Z,8.57
2018-05-25T11:08:45.466Z,8.83
2018-05-25T11:11:11.777Z,8.93
2018-05-25T11:13:38.058Z,10.03
2018-05-25T11:16:04.305Z,9.37
2018-05-25T11:18:30.612Z,8.50
2018-05-25T11:20:57.612Z,7.87
2018-05-25T11:23:23.956Z,7.80
2018-05-25T11:25:50.204Z,7.13
2018-05-25T11:28:17.224Z,7.40
2018-05-25T11:30:43.593Z,7.30
2018-05-25T11:33:09.841Z,8.90
2018-05-25T11:35:36.141Z,10.03
2018-05-25T11:38:02.435Z,10.40
2018-05-25T11:40:28.706Z,10.10
2018-05-25T11:42:54.976Z,10.73
2018-05-25T11:45:21.196Z,9.60
2018-05-25T11:47:47.461Z,10.87
2018-05-25T11:50:13.716Z,10.07
2018-05-25T11:52:39.980Z,9.07
2018-05-25T11:55:06.363Z,8.43
2018-05-25T11:57:33.563Z,9.40
2018-05-25T11:59:59.866Z,8.93
2018-05-25T12:02:26.145Z,8.83
2018-05-25T12:04:52.401Z,9.33
2018-05-25T12:07:19.416Z,8.37
2018-05-25T12:09:45.644Z,7.37
2018-05-25T12:12:11.996Z,8.97
2018-05-25T12:14:38.258Z,8.50
2018-05-25T12:17:04.525Z,8.50
2018-05-25T12:19:31.528Z,9.47
2018-05-25T12:21:57.724Z,9.20
2018-05-25T12:24:24.729Z,9.00
2018-05-25T12:26:50.967Z,8.80
2018-05-25T12:29:17.191Z,8.00
2018-05-25T12:31:43.445Z,7.47
2018-05-25T12:34:09.778Z,7.70
2018-05-25T12:36:36.843Z,9.10
2018-05-25T12:39:03.833Z,8.27
2018-05-25T12:41:30.062Z,8.33
2018-05-25T12:43:56.366Z,7.97
2018-05-25T12:46:23.269Z,8.27
2018-05-25T12:48:50.892Z,8.03
2018-05-25T12:51:17.082Z,8.40
2018-05-25T12:53:44.054Z,8.00
2018-05-25T12:56:10.368Z,8.37
2018-05-25T12:58:36.670Z,7.07
2018-05-25T13:01:02.892Z,6.93
2018-05-25T13:03:29.148Z,6.77
2018-05-25T13:05:56.196Z,7.23
2018-05-25T13:08:22.502Z,7.27
2018-05-25T13:10:48.864Z,6.50
2018-05-25T13:13:15.141Z,6.50
2018-05-25T13:15:42.095Z,6.93
2018-05-25T13:18:08.337Z,7.63
2018-05-25T13:20:34.547Z,7.30
2018-05-25T13:23:00.788Z,7.03
2018-05-25T13:25:27.012Z,7.03
2018-05-25T13:27:53.501Z,6.67
2018-05-25T13:30:19.761Z,7.37
2018-05-25T13:32:45.968Z,7.73
2018-05-25T13:35:12.218Z,7.97
2018-05-25T13:37:38.460Z,7.47
2018-05-25T13:40:04.749Z,7.27
2018-05-25T13:42:31.026Z,8.10
2018-05-25T13:44:57.246Z,7.70
2018-05-25T13:47:23.484Z,8.10
2018-05-25T13:49:49.744Z,7.53
2018-05-25T13:52:16.035Z,6.80
2018-05-25T13:54:42.233Z,6.83
2018-05-25T13:57:08.449Z,7.33
2018-05-25T13:59:34.725Z,8.03
2018-05-25T14:02:01.006Z,7.67
2018-05-25T14:04:27.532Z,7.70
2018-05-25T14:06:53.772Z,6.67
2018-05-25T14:09:20.790Z,7.07
2018-05-25T14:11:47.052Z,7.47
2018-05-25T14:14:14.043Z,7.50
2018-05-25T14:16:41.065Z,7.50
2018-05-25T14:19:07.328Z,6.60
2018-05-25T14:21:33.545Z,7.27
2018-05-25T14:23:59.916Z,7.67
2018-05-25T14:26:26.155Z,6.83
2018-05-25T14:28:52.388Z,7.07
2018-05-25T14:31:19.387Z,8.20
2018-05-25T14:33:45.595Z,8.10
2018-05-25T14:36:12.592Z,7.73
2018-05-25T14:38:38.880Z,7.40
2018-05-25T14:41:05.835Z,7.37
2018-05-25T14:43:32.785Z,8.00
2018-05-25T14:45:59.033Z,7.87
2018-05-25T14:48:25.304Z,8.00
2018-05-25T14:50:51.561Z,7.80
2018-05-25T14:53:17.823Z,6.87
2018-05-25T14:55:44.124Z,7.80
2018-05-25T14:58:10.426Z,6.87
2018-05-25T15:00:36.708Z,6.83
2018-05-25T15:03:02.960Z,6.83
2018-05-25T15:05:29.961Z,7.57
2018-05-25T15:07:56.200Z,7.03
2018-05-25T15:10:22.456Z,7.27
2018-05-25T15:12:48.684Z,7.20
2018-05-25T15:15:15.725Z,7.13
2018-05-25T15:17:41.981Z,8.43
2018-05-25T15:20:08.204Z,7.07
2018-05-25T15:22:34.471Z,7.40
2018-05-25T15:25:00.715Z,8.80
2018-05-25T15:27:26.945Z,8.63
2018-05-25T15:29:53.167Z,8.13
2018-05-25T15:32:19.409Z,8.23
2018-05-25T15:34:45.676Z,7.40
2018-05-25T15:37:11.918Z,7.33
2018-05-25T15:39:38.892Z,8.00
2018-05-25T15:42:05.124Z,7.17
2018-05-25T15:44:31.342Z,7.40
2018-05-25T15:46:57.567Z,7.20
2018-05-25T15:49:23.840Z,6.80
2018-05-25T15:51:50.293Z,6.57
2018-05-25T15:54:17.306Z,6.47
2018-05-25T15:56:43.560Z,7.63
2018-05-25T15:59:09.758Z,7.10
2018-05-25T16:01:36.007Z,7.47
2018-05-25T16:04:02.274Z,6.63
2018-05-25T16:06:28.523Z,6.97
2018-05-25T16:08:54.843Z,6.60
2018-05-25T16:11:21.160Z,6.60
2018-05-25T16:13:48.113Z,5.90
2018-05-25T16:16:14.398Z,5.50
2018-05-25T16:18:40.643Z,5.53
2018-05-25T16:21:08.451Z,5.10
2018-05-25T16:23:34.689Z,4.90
2018-05-25T16:26:00.944Z,5.20
2018-05-25T16:28:27.189Z,4.83
2018-05-25T16:30:53.474Z,4.53
2018-05-25T16:33:19.740Z,4.93
2018-05-25T16:35:46.010Z,4.80
2018-05-25T16:38:12.228Z,4.50
2018-05-25T16:40:39.216Z,4.90
2018-05-25T16:43:05.538Z,5.30
2018-05-25T16:45:31.804Z,5.10
2018-05-25T16:47:58.071Z,5.00
2018-05-25T16:50:24.363Z,4.80
2018-05-25T16:52:50.626Z,4.67
2018-05-25T16:55:16.836Z,5.03
2018-05-25T16:57:43.802Z,4.70
2018-05-25T17:00:10.060Z,4.60
2018-05-25T17:02:36.260Z,4.80
2018-05-25T17:05:02.632Z,4.60
2018-05-25T17:07:28.884Z,5.00
2018-05-25T17:09:55.136Z,5.10
2018-05-25T17:12:22.160Z,4.60
2018-05-25T17:14:48.348Z,4.90
2018-05-25T17:17:14.569Z,4.60
2018-05-25T17:19:40.800Z,4.60
2018-05-25T17:22:07.116Z,4.50
2018-05-25T17:24:33.388Z,4.70
2018-05-25T17:26:59.760Z,4.53
2018-05-25T17:29:25.996Z,4.93
2018-05-25T17:31:52.288Z,4.60
2018-05-25T17:34:18.519Z,4.73
2018-05-25T17:36:45.476Z,4.97
2018-05-25T17:39:12.437Z,4.80
2018-05-25T17:41:38.647Z,4.57
2018-05-25T17:44:04.940Z,4.83
2018-05-25T17:46:31.442Z,4.43
2018-05-25T17:48:57.734Z,4.60
2018-05-25T17:51:23.977Z,5.07
2018-05-25T17:53:50.977Z,5.13
2018-05-25T17:56:17.492Z,4.80
2018-05-25T17:58:43.787Z,4.63
2018-05-25T18:01:10.827Z,5.50
2018-05-25T18:03:37.064Z,5.07
2018-05-25T18:06:03.332Z,5.03
2018-05-25T18:08:29.559Z,5.10
2018-05-25T18:10:55.853Z,4.77
2018-05-25T18:13:22.114Z,5.10
2018-05-25T18:15:48.419Z,5.10
2018-05-25T18:18:14.669Z,5.37
2018-05-25T18:20:40.912Z,5.20
2018-05-25T18:23:07.164Z,5.17
2018-05-25T18:25:33.576Z,5.73
2018-05-25T18:27:59.989Z,5.00
2018-05-25T18:30:27.276Z,5.30
2018-05-25T18:32:54.774Z,5.40
2018-05-25T18:35:22.050Z,5.90
2018-05-25T18:37:48.456Z,5.87
2018-05-25T18:40:14.759Z,5.40
2018-05-25T18:42:42.009Z,6.17
2018-05-25T18:45:08.329Z,6.23
2018-05-25T18:47:34.541Z,6.33
2018-05-25T18:50:00.808Z,5.73
2018-05-25T18:52:27.830Z,5.90
2018-05-25T18:54:54.083Z,6.13
2018-05-25T18:57:21.071Z,6.57
2018-05-25T18:59:47.312Z,5.57
2018-05-25T19:02:14.342Z,6.50
2018-05-25T19:04:40.638Z,6.03
2018-05-25T19:07:06.925Z,5.80
2018-05-25T19:09:33.163Z,6.10
2018-05-25T19:11:59.453Z,6.13
2018-05-25T19:14:25.780Z,5.77
2018-05-25T19:16:52.072Z,6.37
2018-05-25T19:19:18.322Z,6.50
2018-05-25T19:21:44.636Z,5.87
2018-05-25T19:24:11.580Z,9.67
2018-05-25T19:26:39.576Z,8.17
2018-05-25T19:29:05.812Z,6.67
2018-05-25T19:31:32.864Z,6.27
2018-05-25T19:34:00.284Z,6.30
2018-05-25T19:36:26.764Z,6.60
2018-05-25T19:38:53.000Z,6.07
2018-05-25T19:41:19.276Z,6.73
2018-05-25T19:43:45.511Z,6.83
2018-05-25T19:46:11.708Z,6.13
2018-05-25T19:48:38.769Z,6.40
2018-05-25T19:51:05.152Z,5.93
2018-05-25T19:53:32.289Z,6.10
2018-05-25T19:55:58.912Z,7.50
2018-05-25T19:58:25.130Z,6.37
2018-05-25T20:00:51.309Z,6.17
2018-05-25T20:03:17.548Z,5.77
2018-05-25T20:05:43.784Z,6.37
2018-05-25T20:08:11.029Z,6.37
2018-05-25T20:10:37.369Z,6.13
2018-05-25T20:13:04.407Z,6.10
2018-05-25T20:15:30.729Z,5.83
2018-05-25T20:17:56.973Z,6.10
2018-05-25T20:20:23.956Z,6.33
2018-05-25T20:22:50.276Z,6.10
2018-05-25T20:25:16.609Z,6.00
2018-05-25T20:27:42.881Z,6.43
2018-05-25T20:30:09.330Z,6.63
2018-05-25T20:32:35.918Z,8.90
2018-05-25T20:35:02.426Z,7.03
2018-05-25T20:37:28.676Z,6.83
2018-05-25T20:39:54.992Z,6.93
2018-05-25T20:42:21.241Z,6.63
2018-05-25T20:44:47.559Z,6.70
2018-05-25T20:47:15.006Z,6.90
2018-05-25T20:49:41.585Z,6.57
2018-05-25T20:52:09.071Z,6.90
2018-05-25T20:54:36.826Z,6.53
2018-05-25T20:57:03.188Z,7.57
2018-05-25T20:59:29.388Z,7.00
2018-05-25T21:01:55.683Z,6.40
2018-05-25T21:04:21.961Z,6.97
2018-05-25T21:06:48.337Z,6.30
2018-05-25T21:09:14.798Z,7.03
2018-05-25T21:11:41.471Z,7.47
2018-05-25T21:14:08.498Z,7.17
2018-05-25T21:16:36.511Z,7.17
2018-05-25T21:19:02.769Z,7.30
2018-05-25T21:21:36.074Z,7.53
2018-05-25T21:24:02.370Z,7.47
2018-05-25T21:26:28.703Z,7.23
2018-05-25T21:28:54.994Z,7.20
2018-05-25T21:31:21.620Z,7.20
2018-05-25T21:33:48.140Z,7.77
2018-05-25T21:36:15.522Z,6.97
2018-05-25T21:38:42.187Z,7.97
2018-05-25T21:41:08.423Z,7.83
2018-05-25T21:43:34.672Z,7.27
2018-05-25T21:46:01.014Z,7.87
2018-05-25T21:48:28.601Z,8.07
2018-05-25T21:50:55.256Z,7.67
2018-05-25T21:53:21.683Z,8.00
2018-05-25T21:55:48.205Z,7.73
2018-05-25T21:58:15.046Z,8.50
2018-05-25T22:00:45.644Z,8.30
2018-05-25T22:03:13.881Z,8.60
2018-05-25T22:05:42.524Z,7.70
2018-05-25T22:08:08.765Z,8.47
2018-05-25T22:10:35.751Z,8.00
2018-05-25T22:13:02.178Z,8.13
2018-05-25T22:15:28.585Z,8.73
2018-05-25T22:17:55.260Z,8.83
2018-05-25T22:20:22.663Z,8.80
2018-05-25T22:22:49.167Z,9.00
2018-05-25T22:25:15.428Z,9.20
2018-05-25T22:27:42.437Z,8.67
2018-05-25T22:30:08.702Z,9.53
2018-05-25T22:32:35.756Z,9.07
2018-05-25T22:35:02.111Z,9.17
2018-05-25T22:37:28.872Z,8.53
2018-05-25T22:39:55.507Z,8.70
2018-05-25T22:42:34.425Z,8.90
2018-05-25T22:45:13.008Z,9.37
2018-05-25T22:47:51.519Z,8.60
2018-05-25T22:50:30.913Z,8.47
2018-05-25T22:53:03.591Z,9.00
2018-05-25T22:55:30.340Z,9.20
2018-05-25T22:57:57.693Z,9.10
2018-05-25T23:00:24.253Z,8.70
2018-05-25T23:02:51.249Z,9.50
2018-05-25T23:05:17.508Z,9.13
2018-05-25T23:07:43.748Z,9.13
2018-05-25T23:10:10.008Z,9.23
2018-05-25T23:12:36.302Z,9.07
2018-05-25T23:15:03.365Z,11.13
2018-05-25T23:17:29.834Z,8.73
2018-05-25T23:19:56.025Z,9.43
2018-05-25T23:22:23.060Z,8.57
2018-05-25T23:24:50.013Z,8.57
2018-05-25T23:27:16.984Z,8.07
2018-05-25T23:29:43.272Z,8.50
2018-05-25T23:32:10.977Z,8.87
2018-05-25T23:34:38.076Z,8.57
2018-05-25T23:37:04.351Z,8.97
2018-05-25T23:39:30.621Z,8.70
2018-05-25T23:41:56.837Z,8.73
2018-05-25T23:44:23.058Z,8.50
2018-05-25T23:46:49.268Z,8.57
2018-05-25T23:49:15.477Z,8.80
2018-05-25T23:51:42.456Z,8.67
2018-05-25T23:54:08.769Z,8.70
2018-05-25T23:56:35.083Z,9.00
2018-05-25T23:59:02.067Z,8.57
